sensor_id;sensor_type;location;lat;lon;timestamp;P1;durP1;ratioP1;P2;durP2;ratioP2
21138;SDS011;10727;43.600;1.444;2023-12-04T00:02:51;3.22;;;1.83;;
21138;SDS011;10727;43.600;1.444;2023-12-04T00:05:58;3.22;;;1.80;;
21138;SDS011;10727;43.600;1.444;2023-12-04T00:09:03;2.78;;;1.85;;
21138;SDS011;10727;43.600;1.444;2023-12-04T00:12:08;4.22;;;1.90;;
21138;SDS011;10727;43.600;1.444;2023-12-04T00:15:14;3.78;;;1.60;;
21138;SDS011;10727;43.600;1.444;2023-12-04T00:18:19;2.58;;;1.77;;
21138;SDS011;10727;43.600;1.444;2023-12-04T00:21:25;1.92;;;1.73;;
21138;SDS011;10727;43.600;1.444;2023-12-04T00:24:31;1.70;;;1.60;;
21138;SDS011;10727;43.600;1.444;2023-12-04T00:27:36;2.67;;;1.60;;
21138;SDS011;10727;43.600;1.444;2023-12-04T00:30:41;2.85;;;1.90;;
21138;SDS011;10727;43.600;1.444;2023-12-04T00:33:47;2.25;;;1.83;;
21138;SDS011;10727;43.600;1.444;2023-12-04T00:36:53;4.72;;;2.30;;
21138;SDS011;10727;43.600;1.444;2023-12-04T00:39:58;4.18;;;2.60;;
21138;SDS011;10727;43.600;1.444;2023-12-04T00:43:04;3.35;;;2.25;;
21138;SDS011;10727;43.600;1.444;2023-12-04T00:46:09;4.53;;;2.15;;
21138;SDS011;10727;43.600;1.444;2023-12-04T00:49:14;3.13;;;2.03;;
21138;SDS011;10727;43.600;1.444;2023-12-04T00:52:21;3.63;;;2.05;;
21138;SDS011;10727;43.600;1.444;2023-12-04T00:55:26;2.42;;;1.80;;
21138;SDS011;10727;43.600;1.444;2023-12-04T00:58:31;2.42;;;1.88;;
21138;SDS011;10727;43.600;1.444;2023-12-04T01:01:36;2.22;;;1.70;;
21138;SDS011;10727;43.600;1.444;2023-12-04T01:04:42;3.25;;;1.60;;
21138;SDS011;10727;43.600;1.444;2023-12-04T01:07:48;3.03;;;2.00;;
21138;SDS011;10727;43.600;1.444;2023-12-04T01:10:53;3.35;;;2.10;;
21138;SDS011;10727;43.600;1.444;2023-12-04T01:13:59;3.50;;;1.77;;
21138;SDS011;10727;43.600;1.444;2023-12-04T01:17:04;3.42;;;1.60;;
21138;SDS011;10727;43.600;1.444;2023-12-04T01:20:10;3.33;;;1.70;;
21138;SDS011;10727;43.600;1.444;2023-12-04T01:23:17;2.53;;;2.15;;
21138;SDS011;10727;43.600;1.444;2023-12-04T01:26:22;2.78;;;1.90;;
21138;SDS011;10727;43.600;1.444;2023-12-04T01:29:28;5.13;;;2.28;;
21138;SDS011;10727;43.600;1.444;2023-12-04T01:32:34;3.45;;;1.90;;
21138;SDS011;10727;43.600;1.444;2023-12-04T01:35:40;3.95;;;1.80;;
21138;SDS011;10727;43.600;1.444;2023-12-04T01:38:46;2.88;;;1.90;;
21138;SDS011;10727;43.600;1.444;2023-12-04T01:41:51;3.92;;;1.90;;
21138;SDS011;10727;43.600;1.444;2023-12-04T01:44:57;3.50;;;1.80;;
21138;SDS011;10727;43.600;1.444;2023-12-04T01:48:03;2.10;;;1.85;;
21138;SDS011;10727;43.600;1.444;2023-12-04T01:51:09;2.58;;;1.95;;
21138;SDS011;10727;43.600;1.444;2023-12-04T01:54:16;2.33;;;1.70;;
21138;SDS011;10727;43.600;1.444;2023-12-04T01:57:22;2.40;;;1.90;;
21138;SDS011;10727;43.600;1.444;2023-12-04T02:00:27;4.20;;;2.15;;
21138;SDS011;10727;43.600;1.444;2023-12-04T02:03:33;3.47;;;2.10;;
21138;SDS011;10727;43.600;1.444;2023-12-04T02:06:39;4.95;;;2.15;;
21138;SDS011;10727;43.600;1.444;2023-12-04T02:09:46;2.65;;;1.80;;
21138;SDS011;10727;43.600;1.444;2023-12-04T02:12:51;3.17;;;1.90;;
21138;SDS011;10727;43.600;1.444;2023-12-04T02:15:56;2.97;;;2.05;;
21138;SDS011;10727;43.600;1.444;2023-12-04T02:19:03;5.65;;;2.33;;
21138;SDS011;10727;43.600;1.444;2023-12-04T02:22:08;2.95;;;2.10;;
21138;SDS011;10727;43.600;1.444;2023-12-04T02:25:15;4.82;;;2.17;;
21138;SDS011;10727;43.600;1.444;2023-12-04T02:28:21;4.32;;;2.00;;
21138;SDS011;10727;43.600;1.444;2023-12-04T02:31:26;3.47;;;2.22;;
21138;SDS011;10727;43.600;1.444;2023-12-04T02:34:32;3.58;;;2.10;;
21138;SDS011;10727;43.600;1.444;2023-12-04T02:37:38;3.08;;;2.22;;
21138;SDS011;10727;43.600;1.444;2023-12-04T02:40:45;3.63;;;2.05;;
21138;SDS011;10727;43.600;1.444;2023-12-04T02:43:51;4.25;;;2.28;;
21138;SDS011;10727;43.600;1.444;2023-12-04T02:46:56;6.70;;;2.13;;
21138;SDS011;10727;43.600;1.444;2023-12-04T02:50:01;3.65;;;2.42;;
21138;SDS011;10727;43.600;1.444;2023-12-04T02:53:06;3.53;;;2.42;;
21138;SDS011;10727;43.600;1.444;2023-12-04T02:56:13;4.30;;;2.58;;
21138;SDS011;10727;43.600;1.444;2023-12-04T02:59:18;3.45;;;2.25;;
21138;SDS011;10727;43.600;1.444;2023-12-04T03:02:24;3.88;;;2.30;;
21138;SDS011;10727;43.600;1.444;2023-12-04T03:05:29;4.57;;;2.15;;
21138;SDS011;10727;43.600;1.444;2023-12-04T03:08:34;7.85;;;2.65;;
21138;SDS011;10727;43.600;1.444;2023-12-04T03:11:41;4.30;;;2.50;;
21138;SDS011;10727;43.600;1.444;2023-12-04T03:14:46;2.83;;;2.05;;
21138;SDS011;10727;43.600;1.444;2023-12-04T03:17:52;3.80;;;2.22;;
21138;SDS011;10727;43.600;1.444;2023-12-04T03:20:57;3.88;;;2.40;;
21138;SDS011;10727;43.600;1.444;2023-12-04T03:24:02;5.60;;;2.40;;
21138;SDS011;10727;43.600;1.444;2023-12-04T03:27:09;5.10;;;2.60;;
21138;SDS011;10727;43.600;1.444;2023-12-04T03:30:15;5.13;;;2.80;;
21138;SDS011;10727;43.600;1.444;2023-12-04T03:33:20;6.57;;;2.92;;
21138;SDS011;10727;43.600;1.444;2023-12-04T03:36:25;3.92;;;2.45;;
21138;SDS011;10727;43.600;1.444;2023-12-04T03:39:31;3.88;;;2.35;;
21138;SDS011;10727;43.600;1.444;2023-12-04T03:42:38;4.38;;;2.45;;
21138;SDS011;10727;43.600;1.444;2023-12-04T03:45:43;6.07;;;2.50;;
21138;SDS011;10727;43.600;1.444;2023-12-04T03:48:49;4.78;;;2.58;;
21138;SDS011;10727;43.600;1.444;2023-12-04T03:51:54;5.63;;;2.40;;
21138;SDS011;10727;43.600;1.444;2023-12-04T03:55:00;4.60;;;2.67;;
21138;SDS011;10727;43.600;1.444;2023-12-04T03:58:08;4.60;;;2.50;;
21138;SDS011;10727;43.600;1.444;2023-12-04T04:01:13;5.47;;;2.60;;
21138;SDS011;10727;43.600;1.444;2023-12-04T04:04:18;6.15;;;2.50;;
21138;SDS011;10727;43.600;1.444;2023-12-04T04:07:23;5.82;;;2.47;;
21138;SDS011;10727;43.600;1.444;2023-12-04T04:10:29;4.75;;;2.70;;
21138;SDS011;10727;43.600;1.444;2023-12-04T04:13:36;4.55;;;2.38;;
21138;SDS011;10727;43.600;1.444;2023-12-04T04:16:41;8.55;;;2.42;;
21138;SDS011;10727;43.600;1.444;2023-12-04T04:19:46;5.18;;;2.50;;
21138;SDS011;10727;43.600;1.444;2023-12-04T04:22:51;5.72;;;2.63;;
21138;SDS011;10727;43.600;1.444;2023-12-04T04:25:57;4.30;;;2.33;;
21138;SDS011;10727;43.600;1.444;2023-12-04T04:29:04;6.65;;;2.70;;
21138;SDS011;10727;43.600;1.444;2023-12-04T04:32:09;5.45;;;2.40;;
21138;SDS011;10727;43.600;1.444;2023-12-04T04:35:14;5.82;;;2.85;;
21138;SDS011;10727;43.600;1.444;2023-12-04T04:38:19;4.78;;;2.55;;
21138;SDS011;10727;43.600;1.444;2023-12-04T04:41:25;3.65;;;2.53;;
21138;SDS011;10727;43.600;1.444;2023-12-04T04:44:31;4.90;;;2.78;;
21138;SDS011;10727;43.600;1.444;2023-12-04T04:47:37;5.97;;;2.75;;
21138;SDS011;10727;43.600;1.444;2023-12-04T04:50:42;4.65;;;2.55;;
21138;SDS011;10727;43.600;1.444;2023-12-04T04:53:47;5.32;;;2.95;;
21138;SDS011;10727;43.600;1.444;2023-12-04T04:56:52;8.27;;;2.85;;
21138;SDS011;10727;43.600;1.444;2023-12-04T04:59:59;5.43;;;2.53;;
21138;SDS011;10727;43.600;1.444;2023-12-04T05:03:04;9.05;;;2.92;;
21138;SDS011;10727;43.600;1.444;2023-12-04T05:06:09;5.10;;;2.80;;
21138;SDS011;10727;43.600;1.444;2023-12-04T05:09:15;4.28;;;2.53;;
21138;SDS011;10727;43.600;1.444;2023-12-04T05:12:20;7.10;;;3.35;;
21138;SDS011;10727;43.600;1.444;2023-12-04T05:15:27;6.72;;;2.88;;
21138;SDS011;10727;43.600;1.444;2023-12-04T05:18:34;4.57;;;2.80;;
21138;SDS011;10727;43.600;1.444;2023-12-04T05:21:38;7.20;;;3.13;;
21138;SDS011;10727;43.600;1.444;2023-12-04T05:24:44;5.07;;;3.30;;
21138;SDS011;10727;43.600;1.444;2023-12-04T05:27:49;5.88;;;2.95;;
21138;SDS011;10727;43.600;1.444;2023-12-04T05:30:55;5.50;;;3.17;;
21138;SDS011;10727;43.600;1.444;2023-12-04T05:34:01;6.18;;;3.05;;
21138;SDS011;10727;43.600;1.444;2023-12-04T05:37:06;5.18;;;3.20;;
21138;SDS011;10727;43.600;1.444;2023-12-04T05:40:12;6.03;;;2.92;;
21138;SDS011;10727;43.600;1.444;2023-12-04T05:43:17;6.53;;;3.15;;
21138;SDS011;10727;43.600;1.444;2023-12-04T05:46:24;5.65;;;2.90;;
21138;SDS011;10727;43.600;1.444;2023-12-04T05:49:29;7.78;;;3.20;;
21138;SDS011;10727;43.600;1.444;2023-12-04T05:52:36;6.55;;;3.28;;
21138;SDS011;10727;43.600;1.444;2023-12-04T05:55:41;5.88;;;3.10;;
21138;SDS011;10727;43.600;1.444;2023-12-04T05:58:47;5.75;;;3.22;;
21138;SDS011;10727;43.600;1.444;2023-12-04T06:01:53;3.78;;;2.55;;
21138;SDS011;10727;43.600;1.444;2023-12-04T06:04:59;8.00;;;2.90;;
21138;SDS011;10727;43.600;1.444;2023-12-04T06:08:04;7.53;;;3.17;;
21138;SDS011;10727;43.600;1.444;2023-12-04T06:11:10;6.38;;;3.05;;
21138;SDS011;10727;43.600;1.444;2023-12-04T06:14:15;7.90;;;2.90;;
21138;SDS011;10727;43.600;1.444;2023-12-04T06:17:21;5.90;;;2.92;;
21138;SDS011;10727;43.600;1.444;2023-12-04T06:20:26;7.35;;;3.08;;
21138;SDS011;10727;43.600;1.444;2023-12-04T06:23:32;5.40;;;3.38;;
21138;SDS011;10727;43.600;1.444;2023-12-04T06:26:37;8.95;;;3.30;;
21138;SDS011;10727;43.600;1.444;2023-12-04T06:29:45;6.72;;;3.40;;
21138;SDS011;10727;43.600;1.444;2023-12-04T06:32:52;6.10;;;3.17;;
21138;SDS011;10727;43.600;1.444;2023-12-04T06:35:58;7.60;;;3.20;;
21138;SDS011;10727;43.600;1.444;2023-12-04T06:39:03;7.53;;;3.05;;
21138;SDS011;10727;43.600;1.444;2023-12-04T06:42:11;5.93;;;3.35;;
21138;SDS011;10727;43.600;1.444;2023-12-04T06:45:16;8.25;;;3.40;;
21138;SDS011;10727;43.600;1.444;2023-12-04T06:48:24;6.57;;;3.13;;
21138;SDS011;10727;43.600;1.444;2023-12-04T06:51:29;6.55;;;3.17;;
21138;SDS011;10727;43.600;1.444;2023-12-04T06:54:34;7.47;;;2.78;;
21138;SDS011;10727;43.600;1.444;2023-12-04T06:57:40;7.72;;;2.92;;
21138;SDS011;10727;43.600;1.444;2023-12-04T07:00:46;4.82;;;3.00;;
21138;SDS011;10727;43.600;1.444;2023-12-04T07:03:53;4.90;;;2.80;;
21138;SDS011;10727;43.600;1.444;2023-12-04T07:06:58;5.93;;;2.45;;
21138;SDS011;10727;43.600;1.444;2023-12-04T07:10:07;5.95;;;3.00;;
21138;SDS011;10727;43.600;1.444;2023-12-04T07:13:17;7.32;;;2.80;;
21138;SDS011;10727;43.600;1.444;2023-12-04T07:16:23;8.95;;;3.58;;
21138;SDS011;10727;43.600;1.444;2023-12-04T07:19:29;10.23;;;2.70;;
21138;SDS011;10727;43.600;1.444;2023-12-04T07:22:35;6.97;;;3.10;;
21138;SDS011;10727;43.600;1.444;2023-12-04T07:25:40;6.65;;;3.17;;
21138;SDS011;10727;43.600;1.444;2023-12-04T07:28:45;7.45;;;3.50;;
21138;SDS011;10727;43.600;1.444;2023-12-04T07:31:51;9.95;;;3.40;;
21138;SDS011;10727;43.600;1.444;2023-12-04T07:34:57;8.20;;;3.30;;
21138;SDS011;10727;43.600;1.444;2023-12-04T07:38:02;8.65;;;3.00;;
21138;SDS011;10727;43.600;1.444;2023-12-04T07:41:08;6.35;;;2.80;;
21138;SDS011;10727;43.600;1.444;2023-12-04T07:44:13;8.70;;;3.35;;
21138;SDS011;10727;43.600;1.444;2023-12-04T07:47:19;8.15;;;3.67;;
21138;SDS011;10727;43.600;1.444;2023-12-04T07:50:27;6.00;;;3.08;;
21138;SDS011;10727;43.600;1.444;2023-12-04T07:53:32;6.22;;;3.35;;
21138;SDS011;10727;43.600;1.444;2023-12-04T07:56:37;7.38;;;3.17;;
21138;SDS011;10727;43.600;1.444;2023-12-04T07:59:43;7.05;;;3.25;;
21138;SDS011;10727;43.600;1.444;2023-12-04T08:02:48;9.35;;;3.35;;
21138;SDS011;10727;43.600;1.444;2023-12-04T08:05:54;9.68;;;3.42;;
21138;SDS011;10727;43.600;1.444;2023-12-04T08:09:01;9.07;;;3.13;;
21138;SDS011;10727;43.600;1.444;2023-12-04T08:12:08;7.72;;;3.50;;
21138;SDS011;10727;43.600;1.444;2023-12-04T08:15:14;9.38;;;3.35;;
21138;SDS011;10727;43.600;1.444;2023-12-04T08:18:19;6.68;;;3.25;;
21138;SDS011;10727;43.600;1.444;2023-12-04T08:21:26;8.60;;;3.67;;
21138;SDS011;10727;43.600;1.444;2023-12-04T08:24:32;7.70;;;3.63;;
21138;SDS011;10727;43.600;1.444;2023-12-04T08:27:37;6.45;;;3.50;;
21138;SDS011;10727;43.600;1.444;2023-12-04T08:30:43;6.50;;;3.50;;
21138;SDS011;10727;43.600;1.444;2023-12-04T08:33:48;6.75;;;3.05;;
21138;SDS011;10727;43.600;1.444;2023-12-04T08:36:55;6.38;;;3.28;;
21138;SDS011;10727;43.600;1.444;2023-12-04T08:40:07;7.35;;;3.47;;
21138;SDS011;10727;43.600;1.444;2023-12-04T08:43:20;7.13;;;3.28;;
21138;SDS011;10727;43.600;1.444;2023-12-04T08:46:31;8.02;;;3.53;;
21138;SDS011;10727;43.600;1.444;2023-12-04T08:49:44;7.07;;;3.45;;
21138;SDS011;10727;43.600;1.444;2023-12-04T08:52:57;6.68;;;3.35;;
21138;SDS011;10727;43.600;1.444;2023-12-04T08:56:10;8.50;;;3.40;;
21138;SDS011;10727;43.600;1.444;2023-12-04T08:59:22;8.18;;;3.45;;
21138;SDS011;10727;43.600;1.444;2023-12-04T09:02:34;11.20;;;3.70;;
21138;SDS011;10727;43.600;1.444;2023-12-04T09:05:45;8.57;;;4.07;;
21138;SDS011;10727;43.600;1.444;2023-12-04T09:09:01;10.48;;;3.58;;
21138;SDS011;10727;43.600;1.444;2023-12-04T09:12:13;11.40;;;3.80;;
21138;SDS011;10727;43.600;1.444;2023-12-04T09:15:25;7.40;;;3.47;;
21138;SDS011;10727;43.600;1.444;2023-12-04T09:18:37;10.82;;;3.78;;
21138;SDS011;10727;43.600;1.444;2023-12-04T09:21:49;10.20;;;3.75;;
21138;SDS011;10727;43.600;1.444;2023-12-04T09:25:02;10.35;;;3.70;;
21138;SDS011;10727;43.600;1.444;2023-12-04T09:28:14;8.93;;;3.55;;
21138;SDS011;10727;43.600;1.444;2023-12-04T09:31:26;7.93;;;3.80;;
21138;SDS011;10727;43.600;1.444;2023-12-04T09:34:38;8.90;;;3.60;;
21138;SDS011;10727;43.600;1.444;2023-12-04T09:37:50;7.18;;;3.30;;
21138;SDS011;10727;43.600;1.444;2023-12-04T09:41:03;5.68;;;3.00;;
21138;SDS011;10727;43.600;1.444;2023-12-04T09:44:18;5.63;;;3.22;;
21138;SDS011;10727;43.600;1.444;2023-12-04T09:47:31;9.27;;;3.28;;
21138;SDS011;10727;43.600;1.444;2023-12-04T09:50:46;8.63;;;3.45;;
21138;SDS011;10727;43.600;1.444;2023-12-04T09:53:59;7.05;;;3.42;;
21138;SDS011;10727;43.600;1.444;2023-12-04T09:57:15;10.07;;;3.90;;
21138;SDS011;10727;43.600;1.444;2023-12-04T10:00:27;9.63;;;3.60;;
21138;SDS011;10727;43.600;1.444;2023-12-04T10:03:40;8.00;;;3.75;;
21138;SDS011;10727;43.600;1.444;2023-12-04T10:06:53;10.80;;;3.53;;
21138;SDS011;10727;43.600;1.444;2023-12-04T10:10:05;9.30;;;3.53;;
21138;SDS011;10727;43.600;1.444;2023-12-04T10:13:19;8.48;;;3.22;;
21138;SDS011;10727;43.600;1.444;2023-12-04T10:16:32;10.23;;;3.47;;
21138;SDS011;10727;43.600;1.444;2023-12-04T10:19:45;7.32;;;3.38;;
21138;SDS011;10727;43.600;1.444;2023-12-04T10:22:57;10.63;;;3.30;;
21138;SDS011;10727;43.600;1.444;2023-12-04T10:26:14;8.13;;;2.75;;
21138;SDS011;10727;43.600;1.444;2023-12-04T10:29:28;9.02;;;3.00;;
21138;SDS011;10727;43.600;1.444;2023-12-04T10:32:41;11.20;;;4.22;;
21138;SDS011;10727;43.600;1.444;2023-12-04T10:35:53;8.23;;;4.13;;
21138;SDS011;10727;43.600;1.444;2023-12-04T10:39:05;10.73;;;3.83;;
21138;SDS011;10727;43.600;1.444;2023-12-04T10:42:23;10.27;;;2.65;;
21138;SDS011;10727;43.600;1.444;2023-12-04T10:45:37;10.00;;;3.90;;
21138;SDS011;10727;43.600;1.444;2023-12-04T10:48:50;7.57;;;3.13;;
21138;SDS011;10727;43.600;1.444;2023-12-04T10:52:02;7.40;;;3.25;;
21138;SDS011;10727;43.600;1.444;2023-12-04T10:55:15;10.68;;;2.88;;
21138;SDS011;10727;43.600;1.444;2023-12-04T10:58:27;6.47;;;2.90;;
21138;SDS011;10727;43.600;1.444;2023-12-04T11:01:41;9.35;;;2.83;;
21138;SDS011;10727;43.600;1.444;2023-12-04T11:04:54;4.65;;;2.53;;
21138;SDS011;10727;43.600;1.444;2023-12-04T11:08:08;7.55;;;2.80;;
21138;SDS011;10727;43.600;1.444;2023-12-04T11:11:20;8.73;;;2.60;;
21138;SDS011;10727;43.600;1.444;2023-12-04T11:14:34;7.10;;;2.58;;
21138;SDS011;10727;43.600;1.444;2023-12-04T11:17:51;4.47;;;2.20;;
21138;SDS011;10727;43.600;1.444;2023-12-04T11:21:04;8.18;;;3.03;;
21138;SDS011;10727;43.600;1.444;2023-12-04T11:24:17;7.15;;;2.58;;
21138;SDS011;10727;43.600;1.444;2023-12-04T11:27:30;6.47;;;2.60;;
21138;SDS011;10727;43.600;1.444;2023-12-04T11:30:42;6.75;;;2.03;;
21138;SDS011;10727;43.600;1.444;2023-12-04T11:33:56;6.40;;;2.00;;
21138;SDS011;10727;43.600;1.444;2023-12-04T11:37:13;6.65;;;2.25;;
21138;SDS011;10727;43.600;1.444;2023-12-04T11:40:26;7.63;;;2.30;;
21138;SDS011;10727;43.600;1.444;2023-12-04T11:43:39;5.65;;;2.40;;
21138;SDS011;10727;43.600;1.444;2023-12-04T11:46:54;7.88;;;2.00;;
21138;SDS011;10727;43.600;1.444;2023-12-04T11:50:09;5.30;;;2.40;;
21138;SDS011;10727;43.600;1.444;2023-12-04T11:53:21;5.03;;;2.33;;
21138;SDS011;10727;43.600;1.444;2023-12-04T11:56:33;6.15;;;2.05;;
21138;SDS011;10727;43.600;1.444;2023-12-04T11:59:45;4.32;;;1.90;;
21138;SDS011;10727;43.600;1.444;2023-12-04T12:03:00;7.75;;;1.92;;
21138;SDS011;10727;43.600;1.444;2023-12-04T12:06:16;4.88;;;2.10;;
21138;SDS011;10727;43.600;1.444;2023-12-04T12:09:28;5.32;;;2.33;;
21138;SDS011;10727;43.600;1.444;2023-12-04T12:12:40;5.80;;;2.00;;
21138;SDS011;10727;43.600;1.444;2023-12-04T12:15:52;5.30;;;2.17;;
21138;SDS011;10727;43.600;1.444;2023-12-04T12:19:04;4.57;;;2.13;;
21138;SDS011;10727;43.600;1.444;2023-12-04T12:22:18;4.63;;;1.90;;
21138;SDS011;10727;43.600;1.444;2023-12-04T12:25:30;6.13;;;2.08;;
21138;SDS011;10727;43.600;1.444;2023-12-04T12:28:42;9.95;;;2.67;;
21138;SDS011;10727;43.600;1.444;2023-12-04T12:31:54;9.10;;;1.98;;
21138;SDS011;10727;43.600;1.444;2023-12-04T12:35:06;7.75;;;2.28;;
21138;SDS011;10727;43.600;1.444;2023-12-04T12:38:20;4.85;;;2.20;;
21138;SDS011;10727;43.600;1.444;2023-12-04T12:41:33;8.10;;;2.30;;
21138;SDS011;10727;43.600;1.444;2023-12-04T12:44:46;6.55;;;2.22;;
21138;SDS011;10727;43.600;1.444;2023-12-04T12:47:57;7.10;;;2.30;;
21138;SDS011;10727;43.600;1.444;2023-12-04T12:51:09;8.18;;;2.30;;
21138;SDS011;10727;43.600;1.444;2023-12-04T12:54:24;3.40;;;2.17;;
21138;SDS011;10727;43.600;1.444;2023-12-04T12:57:36;6.35;;;2.08;;
21138;SDS011;10727;43.600;1.444;2023-12-04T13:00:48;11.57;;;2.95;;
21138;SDS011;10727;43.600;1.444;2023-12-04T13:04:00;8.50;;;2.83;;
21138;SDS011;10727;43.600;1.444;2023-12-04T13:07:12;8.60;;;2.60;;
21138;SDS011;10727;43.600;1.444;2023-12-04T13:10:25;6.43;;;3.00;;
21138;SDS011;10727;43.600;1.444;2023-12-04T13:13:37;6.18;;;2.85;;
21138;SDS011;10727;43.600;1.444;2023-12-04T13:16:50;4.80;;;2.88;;
21138;SDS011;10727;43.600;1.444;2023-12-04T13:20:05;6.05;;;2.80;;
21138;SDS011;10727;43.600;1.444;2023-12-04T13:23:20;7.20;;;3.05;;
21138;SDS011;10727;43.600;1.444;2023-12-04T13:26:36;6.50;;;2.80;;
21138;SDS011;10727;43.600;1.444;2023-12-04T13:29:48;7.70;;;2.95;;
21138;SDS011;10727;43.600;1.444;2023-12-04T13:33:00;8.10;;;3.20;;
21138;SDS011;10727;43.600;1.444;2023-12-04T13:36:13;9.95;;;2.65;;
21138;SDS011;10727;43.600;1.444;2023-12-04T13:39:25;7.28;;;2.50;;
21138;SDS011;10727;43.600;1.444;2023-12-04T13:42:58;6.88;;;2.53;;
21138;SDS011;10727;43.600;1.444;2023-12-04T13:46:28;7.68;;;2.72;;
21138;SDS011;10727;43.600;1.444;2023-12-04T13:49:41;6.05;;;2.40;;
21138;SDS011;10727;43.600;1.444;2023-12-04T13:52:56;6.28;;;2.28;;
21138;SDS011;10727;43.600;1.444;2023-12-04T13:56:08;7.05;;;2.50;;
21138;SDS011;10727;43.600;1.444;2023-12-04T13:59:37;9.10;;;2.90;;
21138;SDS011;10727;43.600;1.444;2023-12-04T14:02:49;6.00;;;2.60;;
21138;SDS011;10727;43.600;1.444;2023-12-04T14:06:03;6.28;;;2.97;;
21138;SDS011;10727;43.600;1.444;2023-12-04T14:09:15;7.47;;;2.65;;
21138;SDS011;10727;43.600;1.444;2023-12-04T14:12:27;10.48;;;3.00;;
21138;SDS011;10727;43.600;1.444;2023-12-04T14:15:40;9.07;;;2.90;;
21138;SDS011;10727;43.600;1.444;2023-12-04T14:18:52;7.70;;;3.05;;
21138;SDS011;10727;43.600;1.444;2023-12-04T14:22:04;7.97;;;3.30;;
21138;SDS011;10727;43.600;1.444;2023-12-04T14:25:16;10.27;;;3.22;;
21138;SDS011;10727;43.600;1.444;2023-12-04T14:28:29;13.18;;;3.28;;
21138;SDS011;10727;43.600;1.444;2023-12-04T14:31:42;13.82;;;3.78;;
21138;SDS011;10727;43.600;1.444;2023-12-04T14:34:54;10.10;;;3.85;;
21138;SDS011;10727;43.600;1.444;2023-12-04T14:38:06;8.45;;;3.72;;
21138;SDS011;10727;43.600;1.444;2023-12-04T14:41:18;9.25;;;3.83;;
21138;SDS011;10727;43.600;1.444;2023-12-04T14:44:30;7.60;;;3.80;;
21138;SDS011;10727;43.600;1.444;2023-12-04T14:47:43;9.93;;;3.60;;
21138;SDS011;10727;43.600;1.444;2023-12-04T14:50:57;7.97;;;3.60;;
21138;SDS011;10727;43.600;1.444;2023-12-04T14:54:09;8.35;;;3.38;;
21138;SDS011;10727;43.600;1.444;2023-12-04T14:57:27;9.35;;;3.42;;
21138;SDS011;10727;43.600;1.444;2023-12-04T15:01:06;6.15;;;3.28;;
21138;SDS011;10727;43.600;1.444;2023-12-04T15:05:02;7.18;;;3.25;;
21138;SDS011;10727;43.600;1.444;2023-12-04T15:08:40;5.63;;;3.00;;
21138;SDS011;10727;43.600;1.444;2023-12-04T15:12:12;9.40;;;3.25;;
21138;SDS011;10727;43.600;1.444;2023-12-04T15:15:34;8.38;;;3.42;;
21138;SDS011;10727;43.600;1.444;2023-12-04T15:18:59;7.10;;;3.47;;
21138;SDS011;10727;43.600;1.444;2023-12-04T15:22:26;10.55;;;5.25;;
21138;SDS011;10727;43.600;1.444;2023-12-04T15:25:38;6.57;;;3.10;;
21138;SDS011;10727;43.600;1.444;2023-12-04T15:28:50;8.25;;;2.72;;
21138;SDS011;10727;43.600;1.444;2023-12-04T15:32:02;4.43;;;2.15;;
21138;SDS011;10727;43.600;1.444;2023-12-04T15:35:14;3.00;;;1.80;;
21138;SDS011;10727;43.600;1.444;2023-12-04T15:38:27;4.28;;;1.80;;
21138;SDS011;10727;43.600;1.444;2023-12-04T15:41:40;4.15;;;1.92;;
21138;SDS011;10727;43.600;1.444;2023-12-04T15:44:51;3.67;;;1.80;;
21138;SDS011;10727;43.600;1.444;2023-12-04T15:48:02;2.60;;;1.50;;
21138;SDS011;10727;43.600;1.444;2023-12-04T15:51:14;3.50;;;1.70;;
21138;SDS011;10727;43.600;1.444;2023-12-04T15:54:27;3.30;;;1.70;;
21138;SDS011;10727;43.600;1.444;2023-12-04T15:57:41;5.00;;;1.20;;
21138;SDS011;10727;43.600;1.444;2023-12-04T17:31:16;3.17;;;1.15;;
21138;SDS011;10727;43.600;1.444;2023-12-04T17:34:22;3.97;;;1.15;;
21138;SDS011;10727;43.600;1.444;2023-12-04T17:37:27;2.08;;;1.20;;
21138;SDS011;10727;43.600;1.444;2023-12-04T17:40:32;2.35;;;1.30;;
21138;SDS011;10727;43.600;1.444;2023-12-04T17:43:38;3.72;;;1.60;;
21138;SDS011;10727;43.600;1.444;2023-12-04T17:46:44;4.88;;;1.80;;
21138;SDS011;10727;43.600;1.444;2023-12-04T17:49:49;2.95;;;1.52;;
21138;SDS011;10727;43.600;1.444;2023-12-04T17:52:54;4.10;;;1.80;;
21138;SDS011;10727;43.600;1.444;2023-12-04T17:56:00;4.38;;;1.88;;
21138;SDS011;10727;43.600;1.444;2023-12-04T17:59:06;4.00;;;1.70;;
21138;SDS011;10727;43.600;1.444;2023-12-04T18:02:13;3.42;;;1.90;;
21138;SDS011;10727;43.600;1.444;2023-12-04T18:05:19;3.35;;;1.88;;
21138;SDS011;10727;43.600;1.444;2023-12-04T18:08:26;4.60;;;1.80;;
21138;SDS011;10727;43.600;1.444;2023-12-04T18:11:32;3.92;;;1.42;;
21138;SDS011;10727;43.600;1.444;2023-12-04T18:14:37;3.22;;;1.40;;
21138;SDS011;10727;43.600;1.444;2023-12-04T18:17:44;2.30;;;1.50;;
21138;SDS011;10727;43.600;1.444;2023-12-04T18:20:49;3.88;;;1.70;;
21138;SDS011;10727;43.600;1.444;2023-12-04T18:23:55;5.47;;;2.00;;
21138;SDS011;10727;43.600;1.444;2023-12-04T18:27:00;4.25;;;1.80;;
21138;SDS011;10727;43.600;1.444;2023-12-04T18:30:06;6.18;;;2.10;;
21138;SDS011;10727;43.600;1.444;2023-12-04T18:33:14;5.35;;;2.50;;
21138;SDS011;10727;43.600;1.444;2023-12-04T18:36:20;4.97;;;3.13;;
21138;SDS011;10727;43.600;1.444;2023-12-04T18:39:25;6.25;;;3.53;;
21138;SDS011;10727;43.600;1.444;2023-12-04T18:42:33;5.85;;;3.75;;
21138;SDS011;10727;43.600;1.444;2023-12-04T18:45:39;8.77;;;3.80;;
21138;SDS011;10727;43.600;1.444;2023-12-04T18:48:46;4.60;;;3.00;;
21138;SDS011;10727;43.600;1.444;2023-12-04T18:51:51;6.95;;;3.38;;
21138;SDS011;10727;43.600;1.444;2023-12-04T18:54:57;5.20;;;3.00;;
21138;SDS011;10727;43.600;1.444;2023-12-04T18:58:02;5.07;;;2.50;;
21138;SDS011;10727;43.600;1.444;2023-12-04T19:01:08;7.78;;;2.67;;
21138;SDS011;10727;43.600;1.444;2023-12-04T19:04:14;5.35;;;3.00;;
21138;SDS011;10727;43.600;1.444;2023-12-04T19:07:20;5.22;;;2.90;;
21138;SDS011;10727;43.600;1.444;2023-12-04T19:10:25;8.23;;;3.28;;
21138;SDS011;10727;43.600;1.444;2023-12-04T19:13:30;6.65;;;3.35;;
21138;SDS011;10727;43.600;1.444;2023-12-04T19:16:36;6.28;;;3.30;;
21138;SDS011;10727;43.600;1.444;2023-12-04T19:19:43;5.63;;;3.20;;
21138;SDS011;10727;43.600;1.444;2023-12-04T19:22:48;8.00;;;4.10;;
21138;SDS011;10727;43.600;1.444;2023-12-04T19:25:54;7.10;;;3.97;;
21138;SDS011;10727;43.600;1.444;2023-12-04T19:28:59;6.68;;;4.20;;
21138;SDS011;10727;43.600;1.444;2023-12-04T19:32:04;6.10;;;3.55;;
21138;SDS011;10727;43.600;1.444;2023-12-04T19:35:11;5.97;;;3.45;;
21138;SDS011;10727;43.600;1.444;2023-12-04T19:38:16;7.07;;;2.95;;
21138;SDS011;10727;43.600;1.444;2023-12-04T19:41:28;7.05;;;2.90;;
21138;SDS011;10727;43.600;1.444;2023-12-04T19:44:34;5.53;;;3.40;;
21138;SDS011;10727;43.600;1.444;2023-12-04T19:47:39;7.90;;;3.40;;
21138;SDS011;10727;43.600;1.444;2023-12-04T19:50:46;6.22;;;3.17;;
21138;SDS011;10727;43.600;1.444;2023-12-04T19:53:52;6.18;;;3.10;;
21138;SDS011;10727;43.600;1.444;2023-12-04T19:56:57;7.13;;;3.15;;
21138;SDS011;10727;43.600;1.444;2023-12-04T20:00:04;7.07;;;3.90;;
21138;SDS011;10727;43.600;1.444;2023-12-04T20:03:18;6.63;;;3.78;;
21138;SDS011;10727;43.600;1.444;2023-12-04T20:06:25;9.35;;;4.35;;
21138;SDS011;10727;43.600;1.444;2023-12-04T20:09:31;9.50;;;5.13;;
21138;SDS011;10727;43.600;1.444;2023-12-04T20:12:37;8.82;;;4.55;;
21138;SDS011;10727;43.600;1.444;2023-12-04T20:15:42;10.57;;;4.22;;
21138;SDS011;10727;43.600;1.444;2023-12-04T20:18:48;6.53;;;3.25;;
21138;SDS011;10727;43.600;1.444;2023-12-04T20:21:55;4.88;;;3.08;;
21138;SDS011;10727;43.600;1.444;2023-12-04T20:25:00;7.32;;;3.13;;
21138;SDS011;10727;43.600;1.444;2023-12-04T20:28:05;4.47;;;2.40;;
21138;SDS011;10727;43.600;1.444;2023-12-04T20:31:11;4.75;;;2.22;;